createdAt,value
2022-12-09T04:02:44.744Z,5.93
2022-12-09T04:05:13.178Z,6.83
2022-12-09T04:07:41.715Z,7.50
2022-12-09T04:10:10.796Z,7.90
2022-12-09T04:12:40.245Z,7.77
2022-12-09T04:15:10.326Z,7.90
2022-12-09T04:17:38.545Z,8.10
2022-12-09T04:20:09.898Z,8.00
2022-12-09T04:22:38.139Z,7.27
2022-12-09T04:25:06.833Z,7.87
2022-12-09T04:27:35.046Z,8.37
2022-12-09T04:30:03.578Z,8.07
2022-12-09T04:32:32.084Z,8.17
2022-12-09T04:35:00.133Z,8.53
2022-12-09T04:37:29.492Z,10.07
2022-12-09T04:39:57.412Z,10.60
2022-12-09T04:42:25.483Z,10.07
2022-12-09T04:44:53.323Z,9.50
2022-12-09T04:47:21.251Z,8.77
2022-12-09T04:49:49.214Z,8.23
2022-12-09T04:52:18.136Z,8.93
2022-12-09T04:54:49.871Z,9.20
2022-12-09T04:57:17.805Z,8.67
2022-12-09T04:59:46.465Z,9.00
2022-12-09T05:02:14.464Z,8.87
2022-12-09T05:04:43.494Z,9.00
2022-12-09T05:07:12.659Z,9.20
2022-12-09T05:09:41.016Z,9.03
2022-12-09T05:12:10.479Z,9.43
2022-12-09T05:14:38.454Z,8.80
2022-12-09T05:17:07.385Z,8.73
2022-12-09T05:19:35.594Z,9.50
2022-12-09T05:22:04.077Z,9.10
2022-12-09T05:24:32.864Z,8.83
2022-12-09T05:27:01.020Z,9.53
2022-12-09T05:29:30.539Z,9.30
2022-12-09T05:31:58.890Z,9.73
2022-12-09T05:34:27.335Z,8.70
2022-12-09T05:36:55.466Z,9.07
2022-12-09T05:39:23.484Z,9.33
2022-12-09T05:41:51.794Z,9.87
2022-12-09T05:44:19.947Z,9.67
2022-12-09T05:46:49.382Z,9.80
2022-12-09T05:49:17.881Z,9.80
2022-12-09T05:51:46.074Z,9.70
2022-12-09T05:54:14.330Z,10.17
2022-12-09T05:56:47.919Z,10.73
2022-12-09T05:59:16.979Z,11.93
2022-12-09T06:01:45.181Z,9.80
2022-12-09T06:04:14.678Z,9.37
2022-12-09T06:06:43.260Z,9.10
2022-12-09T06:09:12.179Z,9.33
2022-12-09T06:11:41.231Z,8.70
2022-12-09T06:14:10.190Z,9.27
2022-12-09T06:16:38.831Z,8.40
2022-12-09T06:19:07.462Z,8.97
2022-12-09T06:21:39.783Z,8.63
2022-12-09T06:24:08.609Z,9.20
2022-12-09T06:26:36.903Z,9.50
2022-12-09T06:29:05.439Z,9.50
2022-12-09T06:31:33.600Z,9.63
2022-12-09T06:34:02.306Z,9.87
2022-12-09T06:36:32.118Z,9.60
2022-12-09T06:39:10.163Z,10.23
2022-12-09T06:41:41.283Z,10.43
2022-12-09T06:44:09.727Z,10.60
2022-12-09T06:46:37.798Z,10.30
2022-12-09T06:49:06.462Z,10.93
2022-12-09T06:51:34.578Z,11.10
2022-12-09T06:54:03.954Z,10.23
2022-12-09T06:56:32.675Z,11.10
2022-12-09T06:59:00.683Z,11.33
2022-12-09T07:01:29.336Z,11.53
2022-12-09T07:03:58.574Z,11.13
2022-12-09T07:06:29.144Z,10.73
2022-12-09T07:09:00.142Z,11.63
2022-12-09T07:11:31.084Z,11.17
2022-12-09T07:13:59.708Z,11.37
2022-12-09T07:16:28.516Z,12.07
2022-12-09T07:18:57.208Z,12.47
2022-12-09T07:21:26.242Z,13.03
2022-12-09T07:23:54.645Z,12.90
2022-12-09T07:26:23.003Z,13.60
2022-12-09T07:28:52.642Z,13.50
2022-12-09T07:31:22.935Z,14.00
2022-12-09T07:33:52.597Z,14.20
2022-12-09T07:36:22.384Z,14.80
2022-12-09T07:38:55.145Z,14.90
2022-12-09T07:41:23.143Z,14.73
2022-12-09T07:43:52.903Z,15.03
2022-12-09T07:46:23.471Z,14.70
2022-12-09T07:48:51.960Z,15.20
2022-12-09T07:51:20.513Z,14.13
2022-12-09T07:53:48.908Z,14.43
2022-12-09T07:56:18.735Z,15.00
2022-12-09T07:58:48.725Z,14.30
2022-12-09T08:01:21.257Z,14.23
2022-12-09T08:03:50.629Z,14.63
2022-12-09T08:06:21.596Z,14.70
2022-12-09T08:08:50.378Z,14.77
2022-12-09T08:11:20.564Z,14.43
2022-12-09T08:13:49.051Z,13.67
2022-12-09T08:16:20.617Z,14.07
2022-12-09T08:18:49.037Z,13.30
2022-12-09T08:21:19.631Z,13.63
2022-12-09T08:23:48.002Z,13.43
2022-12-09T08:26:17.754Z,16.17
2022-12-09T08:28:46.102Z,14.23
2022-12-09T08:31:17.005Z,17.03
2022-12-09T08:33:47.359Z,17.03
2022-12-09T08:36:17.326Z,17.00
2022-12-09T08:38:45.604Z,14.70
2022-12-09T08:41:15.089Z,15.50
2022-12-09T08:43:44.342Z,15.20
2022-12-09T08:46:13.788Z,16.70
2022-12-09T08:48:43.768Z,14.90
2022-12-09T08:51:13.880Z,15.43
2022-12-09T08:53:42.218Z,17.93
2022-12-09T08:56:12.954Z,20.90
2022-12-09T08:58:42.274Z,18.73
2022-12-09T09:01:16.624Z,15.83
2022-12-09T09:03:45.173Z,15.07
2022-12-09T09:06:16.303Z,15.07
2022-12-09T09:08:44.533Z,15.50
2022-12-09T09:11:14.580Z,15.83
2022-12-09T09:13:44.319Z,15.60
2022-12-09T09:16:14.093Z,15.93
2022-12-09T09:18:42.840Z,15.37
2022-12-09T09:21:13.183Z,16.03
2022-12-09T09:23:43.867Z,14.53
2022-12-09T09:26:13.153Z,15.47
2022-12-09T09:28:41.866Z,15.67
2022-12-09T09:31:13.508Z,16.00
2022-12-09T09:33:42.149Z,14.87
2022-12-09T09:36:14.895Z,15.03
2022-12-09T09:38:44.618Z,15.53
2022-12-09T09:41:26.328Z,14.07
2022-12-09T09:43:56.352Z,13.43
2022-12-09T09:46:34.295Z,12.60
2022-12-09T09:49:05.018Z,13.37
2022-12-09T09:51:35.192Z,13.53
2022-12-09T09:54:08.696Z,15.23
2022-12-09T09:56:41.117Z,15.47
2022-12-09T09:59:21.478Z,12.77
2022-12-09T10:01:59.319Z,12.67
2022-12-09T10:04:37.448Z,12.83
2022-12-09T10:07:13.260Z,12.93
2022-12-09T10:09:54.205Z,16.70
2022-12-09T10:12:29.293Z,13.43
2022-12-09T10:15:01.040Z,12.93
2022-12-09T10:17:35.263Z,12.80
2022-12-09T10:20:11.678Z,18.90
2022-12-09T10:22:45.760Z,15.80
2022-12-09T10:25:22.004Z,15.80
2022-12-09T10:27:56.829Z,15.50
2022-12-09T10:30:27.128Z,15.77
2022-12-09T10:32:59.708Z,15.37
2022-12-09T10:35:30.825Z,15.33
2022-12-09T10:38:10.375Z,14.93
2022-12-09T10:40:49.980Z,15.67
2022-12-09T10:43:37.283Z,15.10
2022-12-09T10:46:18.903Z,14.80
2022-12-09T10:48:54.051Z,15.50
2022-12-09T10:51:25.124Z,15.07
2022-12-09T10:53:56.272Z,14.23
2022-12-09T10:56:27.940Z,13.70
2022-12-09T10:59:12.120Z,12.37
2022-12-09T11:01:52.578Z,11.87
2022-12-09T11:04:25.177Z,11.90
2022-12-09T11:06:59.462Z,11.63
2022-12-09T11:09:31.027Z,12.17
2022-12-09T11:12:02.151Z,12.37
2022-12-09T11:14:35.097Z,11.30
2022-12-09T11:17:15.442Z,14.00
2022-12-09T11:19:45.422Z,12.07
2022-12-09T11:22:23.294Z,11.53
2022-12-09T11:24:53.867Z,9.80
2022-12-09T11:27:30.422Z,9.67
2022-12-09T11:30:13.126Z,9.37
2022-12-09T11:32:56.518Z,9.70
2022-12-09T11:35:31.204Z,9.87
2022-12-09T11:38:03.285Z,10.90
2022-12-09T11:40:33.183Z,9.57
2022-12-09T11:43:03.221Z,11.63
2022-12-09T11:45:37.236Z,10.57
2022-12-09T11:48:27.507Z,10.30
2022-12-09T11:50:57.520Z,9.70
2022-12-09T11:53:29.102Z,10.00
2022-12-09T11:56:03.923Z,8.70
2022-12-09T11:58:39.838Z,9.07
2022-12-09T12:01:12.892Z,8.90
2022-12-09T12:03:46.285Z,8.97
2022-12-09T12:06:19.234Z,9.10
2022-12-09T12:08:52.322Z,8.97
2022-12-09T12:11:27.551Z,8.00
2022-12-09T12:14:03.886Z,8.13
2022-12-09T12:16:39.765Z,7.70
2022-12-09T12:19:16.278Z,6.67
2022-12-09T12:21:57.018Z,7.40
2022-12-09T12:24:48.214Z,6.77
2022-12-09T12:27:27.802Z,7.20
2022-12-09T12:30:00.466Z,7.50
2022-12-09T12:32:40.308Z,7.70
2022-12-09T12:35:31.588Z,8.07
2022-12-09T12:38:09.319Z,7.60
2022-12-09T12:40:42.639Z,7.63
2022-12-09T12:44:00.631Z,8.17
2022-12-09T12:46:43.638Z,7.97
2022-12-09T12:49:27.076Z,7.73
2022-12-09T12:52:04.185Z,7.70
2022-12-09T12:54:43.089Z,8.27
2022-12-09T12:57:20.653Z,7.43
2022-12-09T12:59:57.321Z,8.63
2022-12-09T13:02:39.313Z,9.13
2022-12-09T13:05:19.364Z,8.70
2022-12-09T13:07:52.920Z,10.23
2022-12-09T13:10:28.487Z,9.30
2022-12-09T13:12:58.546Z,8.10
2022-12-09T13:15:33.555Z,7.97
2022-12-09T13:18:12.348Z,7.00
2022-12-09T13:20:49.773Z,6.63
2022-12-09T13:23:35.267Z,7.60
2022-12-09T13:26:16.871Z,5.70
2022-12-09T13:28:52.398Z,6.20
2022-12-09T13:31:26.888Z,6.50
2022-12-09T13:34:04.677Z,6.63
2022-12-09T13:36:41.426Z,6.13
2022-12-09T13:39:12.706Z,5.47
2022-12-09T13:42:04.696Z,5.60
2022-12-09T13:44:37.278Z,5.70
2022-12-09T13:47:26.429Z,5.27
2022-12-09T13:50:01.480Z,4.47
2022-12-09T13:52:51.742Z,4.73
2022-12-09T13:55:48.112Z,4.53
2022-12-09T13:58:45.325Z,4.57
2022-12-09T14:01:24.393Z,6.60
2022-12-09T14:04:07.386Z,7.70
2022-12-09T14:06:42.157Z,7.20
2022-12-09T14:09:27.366Z,7.60
2022-12-09T14:11:56.062Z,7.77
2022-12-09T14:14:46.650Z,7.17
2022-12-09T14:17:36.848Z,8.07
2022-12-09T14:20:18.657Z,8.27
2022-12-09T14:23:16.705Z,7.50
2022-12-09T14:26:05.733Z,7.80
2022-12-09T14:29:00.780Z,7.80
2022-12-09T14:31:48.821Z,7.07
2022-12-09T14:34:39.284Z,7.90
2022-12-09T14:37:38.022Z,7.67
2022-12-09T14:40:30.642Z,7.40
2022-12-09T14:43:11.220Z,7.53
2022-12-09T14:45:49.813Z,7.27
2022-12-09T14:48:22.409Z,7.27
2022-12-09T14:51:15.581Z,8.00
2022-12-09T14:53:44.335Z,7.53
2022-12-09T14:56:19.238Z,8.20
2022-12-09T14:58:50.057Z,7.80
2022-12-09T15:01:19.072Z,7.60
2022-12-09T15:03:53.686Z,8.40
2022-12-09T15:06:26.476Z,7.87
2022-12-09T15:08:59.769Z,7.63
2022-12-09T15:11:32.387Z,7.80
2022-12-09T15:14:18.515Z,8.33
2022-12-09T15:16:50.553Z,8.87
2022-12-09T15:19:58.090Z,9.63
2022-12-09T15:22:15.474Z,9.47
2022-12-09T15:24:50.339Z,9.53
2022-12-09T15:27:22.205Z,10.23
2022-12-09T15:29:50.586Z,9.53
2022-12-09T15:32:25.141Z,8.70
2022-12-09T15:34:54.212Z,8.50
2022-12-09T15:37:26.940Z,8.37
2022-12-09T15:40:00.870Z,8.07
2022-12-09T15:42:34.166Z,8.83
2022-12-09T15:45:07.698Z,8.17
2022-12-09T15:47:39.843Z,8.17
2022-12-09T15:50:18.049Z,8.30
2022-12-09T15:52:51.281Z,8.63
2022-12-09T15:55:21.525Z,8.30
2022-12-09T15:57:53.378Z,9.00
2022-12-09T16:00:21.711Z,9.70
2022-12-09T16:02:50.682Z,7.73
2022-12-09T16:05:24.336Z,7.97
2022-12-09T16:07:55.696Z,6.93
2022-12-09T16:10:26.683Z,7.13
2022-12-09T16:13:10.890Z,6.47
2022-12-09T16:15:46.101Z,6.60
2022-12-09T16:18:18.814Z,6.30
2022-12-09T16:21:00.133Z,7.83
2022-12-09T16:23:28.341Z,8.55
2022-12-09T16:26:07.450Z,9.80
2022-12-09T16:28:37.187Z,10.13
2022-12-09T16:31:18.438Z,9.00
2022-12-09T16:33:49.545Z,8.57
2022-12-09T16:36:20.959Z,8.87
2022-12-09T16:39:32.865Z,7.63
2022-12-09T16:42:03.039Z,8.77
2022-12-09T16:44:35.031Z,8.27
2022-12-09T16:47:15.992Z,8.23
2022-12-09T16:49:47.029Z,8.57
2022-12-09T16:52:16.403Z,8.27
2022-12-09T16:54:45.415Z,8.27
2022-12-09T16:57:15.142Z,9.33
2022-12-09T16:59:45.621Z,8.13
2022-12-09T17:02:19.854Z,7.30
2022-12-09T17:04:48.806Z,7.57
2022-12-09T17:07:16.687Z,7.27
2022-12-09T17:09:44.632Z,7.53
2022-12-09T17:12:12.594Z,7.30
2022-12-09T17:14:40.594Z,7.40
2022-12-09T17:17:10.327Z,7.17
2022-12-09T17:19:38.689Z,7.57
2022-12-09T17:22:06.614Z,7.40
2022-12-09T17:24:34.479Z,8.63
2022-12-09T17:27:02.315Z,6.90
2022-12-09T17:29:30.284Z,6.70
2022-12-09T17:31:58.185Z,6.87
2022-12-09T17:34:27.427Z,7.30
2022-12-09T17:36:55.946Z,6.70
2022-12-09T17:39:24.639Z,6.73
2022-12-09T17:41:52.548Z,6.53
2022-12-09T17:44:21.196Z,6.23
2022-12-09T17:46:50.416Z,8.93
2022-12-09T17:49:19.061Z,8.00
2022-12-09T17:51:48.473Z,7.07
2022-12-09T17:54:16.332Z,6.37
2022-12-09T17:56:46.521Z,6.37
2022-12-09T17:59:17.528Z,6.80
2022-12-09T18:01:47.021Z,7.03
2022-12-09T18:04:15.766Z,7.37
2022-12-09T18:06:44.759Z,7.20
2022-12-09T18:09:16.476Z,7.03
2022-12-09T18:11:45.238Z,8.87
2022-12-09T18:14:13.375Z,9.63
2022-12-09T18:16:41.289Z,10.33
2022-12-09T18:19:14.733Z,9.43
2022-12-09T18:21:42.807Z,8.60
2022-12-09T18:24:10.781Z,7.57
2022-12-09T18:26:42.197Z,8.43
2022-12-09T18:29:10.856Z,9.13
2022-12-09T18:31:39.527Z,7.40
2022-12-09T18:34:08.506Z,6.77
2022-12-09T18:36:36.760Z,6.97
2022-12-09T18:39:05.087Z,6.40
2022-12-09T18:41:33.747Z,6.53
2022-12-09T18:44:05.566Z,6.77
2022-12-09T18:46:36.193Z,6.10
2022-12-09T18:49:07.093Z,6.87
2022-12-09T18:51:35.551Z,6.10
2022-12-09T18:54:05.103Z,6.90
2022-12-09T18:56:33.312Z,6.60
2022-12-09T18:59:09.532Z,6.87
2022-12-09T19:01:41.249Z,6.53
2022-12-09T19:04:13.542Z,6.33
2022-12-09T19:06:43.228Z,6.47
2022-12-09T19:09:12.922Z,6.93
2022-12-09T19:11:42.021Z,7.13
2022-12-09T19:14:10.876Z,8.20
2022-12-09T19:16:40.467Z,9.33
2022-12-09T19:19:10.687Z,7.67
2022-12-09T19:21:39.981Z,7.10
2022-12-09T19:24:09.141Z,6.93
2022-12-09T19:26:38.123Z,6.60
2022-12-09T19:29:08.567Z,6.93
2022-12-09T19:31:41.497Z,7.13
2022-12-09T19:34:12.971Z,6.93
2022-12-09T19:36:41.164Z,6.70
2022-12-09T19:39:10.467Z,7.00
2022-12-09T19:41:40.303Z,7.20
2022-12-09T19:44:09.198Z,9.60
2022-12-09T19:46:38.389Z,9.80
2022-12-09T19:49:08.245Z,8.63
2022-12-09T19:51:36.146Z,8.47
2022-12-09T19:54:04.180Z,8.27
2022-12-09T19:56:32.102Z,8.90
2022-12-09T19:59:00.630Z,12.23
2022-12-09T20:01:30.503Z,18.33
2022-12-09T20:04:08.900Z,11.47
2022-12-09T20:06:49.099Z,11.47
2022-12-09T20:09:23.916Z,9.90
2022-12-09T20:11:52.584Z,10.07
2022-12-09T20:14:20.833Z,9.77
2022-12-09T20:16:48.719Z,9.07
2022-12-09T20:19:17.994Z,7.03
2022-12-09T20:21:45.977Z,6.57
2022-12-09T20:24:15.157Z,6.30
2022-12-09T20:26:43.829Z,6.30
2022-12-09T20:29:12.290Z,6.40
2022-12-09T20:31:40.871Z,6.13
2022-12-09T20:34:12.093Z,5.60
2022-12-09T20:36:42.478Z,5.73
2022-12-09T20:39:15.549Z,5.43
2022-12-09T20:41:45.183Z,5.60
2022-12-09T20:44:15.204Z,5.63
2022-12-09T20:46:47.138Z,5.60
2022-12-09T20:49:15.200Z,5.23
2022-12-09T20:51:45.139Z,5.80
2022-12-09T20:54:13.545Z,5.53
2022-12-09T20:56:42.127Z,6.33
2022-12-09T20:59:13.451Z,6.60
2022-12-09T21:01:42.074Z,8.37
2022-12-09T21:04:10.043Z,7.53
2022-12-09T21:06:39.642Z,10.67
2022-12-09T21:09:10.069Z,9.43
2022-12-09T21:11:38.480Z,9.83
2022-12-09T21:14:07.787Z,9.07
2022-12-09T21:16:40.373Z,8.00
2022-12-09T21:19:11.654Z,8.17
2022-12-09T21:21:41.938Z,7.50
2022-12-09T21:24:12.064Z,7.90
2022-12-09T21:26:40.420Z,7.40
2022-12-09T21:29:09.255Z,8.53
2022-12-09T21:31:40.911Z,8.07
2022-12-09T21:34:10.739Z,8.13
2022-12-09T21:36:41.347Z,8.60
2022-12-09T21:39:11.656Z,6.50
2022-12-09T21:41:39.633Z,6.40
2022-12-09T21:44:08.118Z,6.00
2022-12-09T21:46:38.430Z,6.50
2022-12-09T21:49:07.501Z,6.53
2022-12-09T21:51:36.082Z,6.30
2022-12-09T21:54:04.496Z,5.97
2022-12-09T21:56:35.518Z,5.80
2022-12-09T21:59:05.715Z,5.90
2022-12-09T22:01:35.300Z,5.93
2022-12-09T22:04:06.697Z,8.93
2022-12-09T22:06:35.186Z,9.20
2022-12-09T22:09:05.016Z,8.53
2022-12-09T22:11:35.169Z,8.57
2022-12-09T22:14:04.173Z,9.47
2022-12-09T22:16:34.462Z,8.70
2022-12-09T22:19:05.918Z,8.43
2022-12-09T22:21:34.660Z,8.70
2022-12-09T22:24:05.402Z,9.33
2022-12-09T22:26:34.065Z,11.03
2022-12-09T22:29:03.078Z,9.40
2022-12-09T22:31:32.806Z,10.00
2022-12-09T22:34:03.016Z,9.57
2022-12-09T22:36:42.420Z,8.07
2022-12-09T22:39:14.064Z,7.37
2022-12-09T22:41:43.545Z,8.73
2022-12-09T22:44:13.216Z,7.97
2022-12-09T22:46:42.167Z,10.30
2022-12-09T22:49:13.206Z,10.30
2022-12-09T22:51:43.135Z,10.40
2022-12-09T22:54:11.745Z,10.00
2022-12-09T22:56:41.383Z,8.57
2022-12-09T22:59:09.686Z,8.37
